Terminal Aerodrome Forecast
Issued by NWS

Home | Current Version | Previous Version | Text Only | Print | Product List | Glossary On
Versions: 1 2 3 4 5 6 7 8 9 10 11 12 13 14 15 16 17 18 19 20 21 22 23
000
FTUS46 KPDT 140055 AAA
TAFRDM
TAF AMD
KRDM 140055Z 1401/1424 30006KT 1SM BR OVC002
     FM140600 VRB02KT 1/2SM FZFG VV002
      TEMPO 1413/1417 1/4SM FZFG VV001
     FM141800 VRB04KT 1SM BR OVC004
     FM142100 VRB04KT P6SM SCT005=

USA.gov is the U.S. government's official web portal to all federal, state and local government web resources and services.